Time;durP1;ratioP1;P1;durP2;ratioP2;P2;SDS_P1;SDS_P2;PMS_P1;PMS_P2;Temp;Humidity;BMP_temperature;BMP_pressure;BME280_temperature;BME280_humidity;BME280_pressure;Samples;Min_cycle;Max_cycle;Signal;HPM_P1;HPM_P2
2022/02/26 00:01:32;;;;;;;13.10;2.75;;;2.90;99.90;;;;;;5114908;28;20210;-63
2022/02/26 00:04:00;;;;;;;12.25;3.33;;;2.90;99.90;;;;;;5115947;28;20219;-63
2022/02/26 00:06:28;;;;;;;14.15;3.90;;;2.90;99.90;;;;;;5114831;28;20207;-62
2022/02/26 00:08:55;;;;;;;27.17;3.85;;;2.80;99.90;;;;;;5113892;28;20200;-64
2022/02/26 00:11:22;;;;;;;20.30;4.43;;;2.80;99.90;;;;;;5114877;28;20215;-62
2022/02/26 00:13:49;;;;;;;12.25;3.00;;;2.70;99.90;;;;;;5114497;28;20219;-63
2022/02/26 00:16:16;;;;;;;16.70;3.75;;;2.70;99.90;;;;;;5114878;28;20206;-63
2022/02/26 00:18:43;;;;;;;16.83;3.40;;;2.70;99.90;;;;;;5115925;28;20211;-62
2022/02/26 00:21:12;;;;;;;12.10;3.25;;;2.70;99.90;;;;;;5117967;28;20200;-64
2022/02/26 00:23:40;;;;;;;14.07;3.35;;;2.80;99.90;;;;;;5117292;28;20206;-63
2022/02/26 00:26:07;;;;;;;11.15;3.15;;;2.80;99.90;;;;;;5121733;28;20211;-63
2022/02/26 00:28:34;;;;;;;10.95;4.88;;;2.80;99.90;;;;;;5124074;28;20200;-63
2022/02/26 00:31:01;;;;;;;9.45;3.33;;;2.80;99.90;;;;;;5126399;28;20242;-63
2022/02/26 00:33:29;;;;;;;17.83;4.80;;;2.90;99.90;;;;;;5126786;28;20664;-63
2022/02/26 00:35:58;;;;;;;22.00;4.10;;;2.90;99.90;;;;;;5121927;28;20671;-63
2022/02/26 00:38:27;;;;;;;15.25;4.22;;;2.90;99.90;;;;;;5121238;28;20205;-63
2022/02/26 00:40:54;;;;;;;12.30;3.45;;;3.00;99.90;;;;;;5124044;28;20228;-63
2022/02/26 00:43:22;;;;;;;12.85;3.22;;;3.00;99.90;;;;;;5119965;28;20203;-64
2022/02/26 00:45:50;;;;;;;16.05;3.40;;;3.10;99.90;;;;;;5121309;28;20199;-64
2022/02/26 00:48:17;;;;;;;13.60;3.75;;;3.10;99.90;;;;;;5120083;28;20200;-63
2022/02/26 00:50:43;;;;;;;8.80;2.92;;;3.20;99.90;;;;;;5119013;28;20226;-63
2022/02/26 00:53:10;;;;;;;16.42;4.90;;;3.20;99.90;;;;;;5117982;28;20195;-63
2022/02/26 00:55:39;;;;;;;18.35;4.40;;;3.30;99.90;;;;;;5117879;28;20223;-63
2022/02/26 00:58:06;;;;;;;13.07;3.30;;;3.30;99.90;;;;;;5118474;28;20199;-64
2022/02/26 01:00:33;;;;;;;7.40;2.60;;;3.30;99.90;;;;;;5118010;28;20518;-62
2022/02/26 01:03:00;;;;;;;16.95;4.47;;;3.30;99.90;;;;;;5118377;28;20303;-61
2022/02/26 01:05:27;;;;;;;16.70;3.90;;;3.30;99.90;;;;;;5117801;28;20196;-62
2022/02/26 01:07:54;;;;;;;18.40;3.75;;;3.40;99.90;;;;;;5118003;28;20272;-63
2022/02/26 01:10:21;;;;;;;23.98;3.58;;;3.40;99.90;;;;;;5117474;28;20223;-62
2022/02/26 01:12:49;;;;;;;22.50;4.38;;;3.40;99.90;;;;;;5117239;28;20256;-62
2022/02/26 01:15:17;;;;;;;13.50;3.65;;;3.40;99.90;;;;;;5117796;28;20216;-63
2022/02/26 01:17:44;;;;;;;16.60;3.13;;;3.40;99.90;;;;;;5123745;28;20199;-62
2022/02/26 01:20:11;;;;;;;18.58;3.22;;;3.40;99.90;;;;;;5123252;28;20726;-62
2022/02/26 01:22:38;;;;;;;14.32;3.60;;;3.50;99.90;;;;;;5122349;28;20199;-64
2022/02/26 01:25:06;;;;;;;22.33;5.05;;;3.40;99.90;;;;;;5120561;28;20192;-63
2022/02/26 01:27:33;;;;;;;15.88;3.20;;;3.50;99.90;;;;;;5128276;28;20690;-63
2022/02/26 01:30:02;;;;;;;13.60;3.13;;;3.50;99.90;;;;;;5125002;28;20231;-64
2022/02/26 01:32:29;;;;;;;12.80;3.78;;;3.50;99.90;;;;;;5120976;28;20200;-63
2022/02/26 01:34:56;;;;;;;13.60;4.28;;;3.50;99.90;;;;;;5117668;28;20266;-63
2022/02/26 01:37:23;;;;;;;18.38;3.67;;;3.50;99.90;;;;;;5116268;28;20655;-63
2022/02/26 01:39:50;;;;;;;11.15;3.10;;;3.50;99.90;;;;;;5116513;28;20223;-62
2022/02/26 01:42:21;;;;;;;17.70;3.45;;;3.50;99.90;;;;;;5116258;28;20200;-62
2022/02/26 01:44:49;;;;;;;14.88;4.93;;;3.50;99.90;;;;;;5116444;28;20180;-63
2022/02/26 01:47:18;;;;;;;15.48;3.72;;;3.50;99.90;;;;;;5116537;28;20211;-62
2022/02/26 01:49:45;;;;;;;10.95;2.83;;;3.50;99.90;;;;;;5116897;28;20238;-62
2022/02/26 01:52:15;;;;;;;16.73;3.40;;;3.60;99.90;;;;;;5117215;28;20207;-63
2022/02/26 01:54:42;;;;;;;11.60;2.67;;;3.60;99.90;;;;;;5115955;28;20563;-63
2022/02/26 01:57:09;;;;;;;24.90;4.00;;;3.60;99.90;;;;;;5115749;28;20667;-62
2022/02/26 01:59:36;;;;;;;17.05;3.58;;;3.60;99.90;;;;;;5115905;28;20227;-62
2022/02/26 02:02:04;;;;;;;25.30;3.65;;;3.60;99.90;;;;;;5116133;28;20212;-62
2022/02/26 02:04:33;;;;;;;13.68;4.25;;;3.60;99.90;;;;;;5116066;28;20195;-63
2022/02/26 02:07:00;;;;;;;23.20;5.10;;;3.60;99.90;;;;;;5115933;28;20204;-63
2022/02/26 02:09:27;;;;;;;17.33;3.80;;;3.60;99.90;;;;;;5116054;28;20223;-63
2022/02/26 02:11:54;;;;;;;14.20;3.25;;;3.60;99.90;;;;;;5115999;28;20204;-62
2022/02/26 02:14:22;;;;;;;20.65;3.83;;;3.60;99.90;;;;;;5116876;28;20212;-63
2022/02/26 02:16:49;;;;;;;10.98;3.70;;;3.60;99.90;;;;;;5119640;28;20211;-63
2022/02/26 02:19:16;;;;;;;20.80;4.30;;;3.60;99.90;;;;;;5120616;28;20223;-64
2022/02/26 02:21:44;;;;;;;10.43;2.70;;;3.60;99.90;;;;;;5121587;28;20259;-62
2022/02/26 02:24:13;;;;;;;13.93;3.70;;;3.60;99.90;;;;;;5119564;28;20195;-62
2022/02/26 02:26:40;;;;;;;9.63;4.00;;;3.60;99.90;;;;;;5118737;28;20207;-63
2022/02/26 02:29:07;;;;;;;19.02;3.45;;;3.60;99.90;;;;;;5115234;28;20663;-63
2022/02/26 02:31:34;;;;;;;11.57;4.07;;;3.60;99.90;;;;;;5115594;28;20200;-62
2022/02/26 02:34:02;;;;;;;18.00;3.88;;;3.50;99.90;;;;;;5115400;28;20545;-64
2022/02/26 02:36:29;;;;;;;13.38;3.40;;;3.50;99.90;;;;;;5115310;28;20218;-62
2022/02/26 02:38:56;;;;;;;15.10;3.55;;;3.50;99.90;;;;;;5115158;28;20306;-62
2022/02/26 02:41:24;;;;;;;13.63;3.28;;;3.50;99.90;;;;;;5115473;28;20211;-63
2022/02/26 02:43:51;;;;;;;24.33;4.43;;;3.50;99.90;;;;;;5115093;28;20200;-63
2022/02/26 02:46:18;;;;;;;16.58;3.50;;;3.50;99.90;;;;;;5114843;28;20206;-62
2022/02/26 02:48:46;;;;;;;14.27;3.40;;;3.50;99.90;;;;;;5113810;28;20211;-62
2022/02/26 02:51:13;;;;;;;22.00;3.90;;;3.50;99.90;;;;;;5117581;28;20199;-63
2022/02/26 02:53:40;;;;;;;13.90;3.20;;;3.40;99.90;;;;;;5118999;28;20207;-63
2022/02/26 02:56:07;;;;;;;17.25;3.30;;;3.40;99.90;;;;;;5114606;28;20710;-62
2022/02/26 02:58:36;;;;;;;13.52;2.85;;;3.40;99.90;;;;;;5114882;28;20200;-63
2022/02/26 03:01:03;;;;;;;17.70;3.85;;;3.40;99.90;;;;;;5115169;28;20220;-62
2022/02/26 03:03:30;;;;;;;13.73;3.13;;;3.40;99.90;;;;;;5114906;28;20199;-63
2022/02/26 03:05:57;;;;;;;13.18;5.80;;;3.40;99.90;;;;;;5114549;28;20678;-62
2022/02/26 03:08:24;;;;;;;20.63;3.30;;;3.40;99.90;;;;;;5124145;28;20687;-63
2022/02/26 03:10:52;;;;;;;24.98;4.03;;;3.40;99.90;;;;;;5121297;28;20219;-62
2022/02/26 03:13:20;;;;;;;12.40;3.83;;;3.40;99.90;;;;;;5114552;28;20666;-63
2022/02/26 03:15:50;;;;;;;13.25;3.60;;;3.40;99.90;;;;;;5114521;28;20245;-62
2022/02/26 03:18:17;;;;;;;19.00;3.00;;;3.40;99.90;;;;;;5115414;28;20517;-62
2022/02/26 03:20:44;;;;;;;14.13;4.10;;;3.40;99.90;;;;;;5117455;28;20224;-62
2022/02/26 03:23:11;;;;;;;15.95;5.63;;;3.50;99.90;;;;;;5117780;28;20203;-62
2022/02/26 03:25:39;;;;;;;10.20;3.20;;;3.50;99.90;;;;;;5119577;28;20199;-63
2022/02/26 03:28:06;;;;;;;16.30;3.42;;;3.50;99.90;;;;;;5119048;28;20603;-63
2022/02/26 03:30:34;;;;;;;13.48;2.92;;;3.50;99.90;;;;;;5120763;28;20223;-62
2022/02/26 03:33:02;;;;;;;17.77;3.30;;;3.50;99.90;;;;;;5119419;28;20222;-62
2022/02/26 03:35:29;;;;;;;17.92;4.50;;;3.40;99.90;;;;;;5117749;28;20623;-62
2022/02/26 03:37:56;;;;;;;11.13;3.58;;;3.40;99.90;;;;;;5117893;28;20210;-62
2022/02/26 03:40:24;;;;;;;18.80;5.70;;;3.40;99.90;;;;;;5117177;28;20227;-62
2022/02/26 03:42:51;;;;;;;14.57;3.53;;;3.30;99.90;;;;;;5118567;28;20207;-62
2022/02/26 03:45:18;;;;;;;17.52;3.60;;;3.30;99.90;;;;;;5122872;28;20204;-62
2022/02/26 03:47:45;;;;;;;10.65;2.95;;;3.30;99.90;;;;;;5118216;28;20608;-62
2022/02/26 03:50:13;;;;;;;15.32;3.08;;;3.30;99.90;;;;;;5116170;28;20220;-63
2022/02/26 03:52:41;;;;;;;22.10;3.60;;;3.20;99.90;;;;;;5121122;28;20196;-63
2022/02/26 03:55:09;;;;;;;14.48;5.03;;;3.20;99.90;;;;;;5120764;28;20219;-63
2022/02/26 03:57:36;;;;;;;14.13;4.25;;;3.10;99.90;;;;;;5119489;28;20210;-62
2022/02/26 04:00:06;;;;;;;20.95;3.83;;;3.00;99.90;;;;;;5114529;28;20227;-63
2022/02/26 04:02:34;;;;;;;14.23;3.75;;;3.00;99.90;;;;;;5114841;28;20286;-63
2022/02/26 04:05:01;;;;;;;11.35;3.05;;;2.90;99.90;;;;;;5114764;28;20196;-63
2022/02/26 04:09:20;;;;;;;10.70;2.40;;;2.90;99.90;;;;;;5096787;27;1529922;-61
2022/02/26 04:11:47;;;;;;;12.38;3.55;;;2.80;99.90;;;;;;5131522;28;20206;-62
2022/02/26 04:14:14;;;;;;;9.50;3.25;;;2.80;99.90;;;;;;5131708;28;20667;-62
2022/02/26 04:16:42;;;;;;;13.77;3.55;;;2.80;99.90;;;;;;5131569;28;20697;-62
2022/02/26 04:19:09;;;;;;;12.90;3.40;;;2.70;99.90;;;;;;5154931;22;20271;-58
2022/02/26 04:21:36;;;;;;;16.38;4.15;;;2.70;99.90;;;;;;5109724;28;20223;-57
2022/02/26 04:24:03;;;;;;;16.00;4.15;;;2.70;99.90;;;;;;5110698;28;20207;-58
2022/02/26 04:26:31;;;;;;;13.40;3.83;;;2.70;99.90;;;;;;5110738;28;20222;-57
2022/02/26 04:28:58;;;;;;;7.80;2.70;;;2.70;99.90;;;;;;5110901;28;20226;-58
2022/02/26 04:31:26;;;;;;;17.55;4.35;;;2.70;99.90;;;;;;5110691;28;20219;-56
2022/02/26 04:33:53;;;;;;;16.40;3.50;;;2.70;99.90;;;;;;5110538;28;20204;-57
2022/02/26 04:36:21;;;;;;;13.70;3.63;;;2.70;99.90;;;;;;5110717;28;20206;-57
2022/02/26 04:38:49;;;;;;;15.30;4.85;;;2.70;99.90;;;;;;5110309;28;20203;-57
2022/02/26 04:41:16;;;;;;;15.70;3.30;;;2.80;99.90;;;;;;5110659;28;20228;-57
2022/02/26 04:43:45;;;;;;;13.35;2.95;;;2.70;99.90;;;;;;5110250;28;20237;-57
2022/02/26 04:46:13;;;;;;;20.52;4.43;;;2.70;99.90;;;;;;5110269;28;20227;-57
2022/02/26 04:48:40;;;;;;;11.63;3.88;;;2.70;99.90;;;;;;5110158;28;20211;-57
2022/02/26 04:51:09;;;;;;;14.25;3.60;;;2.80;99.90;;;;;;5110076;28;20219;-57
2022/02/26 04:53:37;;;;;;;15.80;3.05;;;2.70;99.90;;;;;;5110121;28;20204;-57
2022/02/26 04:56:05;;;;;;;13.68;3.47;;;2.80;99.90;;;;;;5109740;28;20232;-57
2022/02/26 04:58:32;;;;;;;21.35;5.00;;;2.80;99.90;;;;;;5109738;28;20278;-56
2022/02/26 05:01:01;;;;;;;14.27;4.50;;;2.80;99.90;;;;;;5109868;28;20227;-56
2022/02/26 05:03:28;;;;;;;16.08;4.00;;;2.80;99.90;;;;;;5109859;28;20576;-56
2022/02/26 05:05:55;;;;;;;14.05;2.90;;;2.80;99.90;;;;;;5109626;28;20671;-56
2022/02/26 05:08:22;;;;;;;23.42;3.38;;;2.80;99.90;;;;;;5109966;28;20216;-57
2022/02/26 05:10:49;;;;;;;18.98;4.88;;;2.80;99.90;;;;;;5109782;28;20231;-56
2022/02/26 05:13:16;;;;;;;21.77;3.85;;;2.70;99.90;;;;;;5109521;28;20204;-57
2022/02/26 05:15:43;;;;;;;16.05;3.40;;;2.70;99.90;;;;;;5109336;28;20672;-57
2022/02/26 05:18:12;;;;;;;11.45;3.15;;;2.70;99.90;;;;;;5109627;28;20563;-56
2022/02/26 05:20:39;;;;;;;12.52;3.20;;;2.70;99.90;;;;;;5096065;28;20587;-57
2022/02/26 05:23:06;;;;;;;22.27;4.03;;;2.70;99.90;;;;;;5095679;28;20203;-57
2022/02/26 05:25:33;;;;;;;11.98;3.00;;;2.70;99.90;;;;;;5095931;28;20211;-56
2022/02/26 05:28:00;;;;;;;18.08;4.18;;;2.80;99.90;;;;;;5095799;28;20251;-57
2022/02/26 05:30:27;;;;;;;9.65;3.10;;;2.80;99.90;;;;;;5095844;28;20228;-57
2022/02/26 05:32:54;;;;;;;21.90;3.35;;;2.80;99.90;;;;;;5095840;28;20219;-56
2022/02/26 05:35:23;;;;;;;18.00;3.72;;;2.80;99.90;;;;;;5095746;28;20227;-56
2022/02/26 05:37:50;;;;;;;10.45;2.58;;;2.90;99.90;;;;;;5095884;28;20229;-56
2022/02/26 05:40:17;;;;;;;16.20;3.90;;;2.90;99.90;;;;;;5095730;28;20731;-56
2022/02/26 05:42:44;;;;;;;13.57;3.60;;;2.90;99.90;;;;;;5095458;28;20553;-57
2022/02/26 05:45:11;;;;;;;13.07;3.78;;;2.90;99.90;;;;;;5095608;28;20567;-57
2022/02/26 05:47:38;;;;;;;19.25;4.53;;;2.90;99.90;;;;;;5095672;28;20706;-58
2022/02/26 05:50:06;;;;;;;10.95;2.92;;;2.80;99.90;;;;;;5095240;28;20713;-56
2022/02/26 05:52:35;;;;;;;19.95;3.78;;;2.80;99.90;;;;;;5095575;28;20207;-56
2022/02/26 05:55:02;;;;;;;15.60;3.92;;;2.80;99.90;;;;;;5095446;28;20566;-57
2022/02/26 05:57:29;;;;;;;9.60;3.20;;;2.70;99.90;;;;;;5095404;28;20200;-58
2022/02/26 05:59:56;;;;;;;9.13;2.55;;;2.70;99.90;;;;;;5095376;28;20220;-57
2022/02/26 06:02:23;;;;;;;15.18;3.70;;;2.60;99.90;;;;;;5095077;28;20691;-56
2022/02/26 06:04:50;;;;;;;22.13;5.85;;;2.50;99.90;;;;;;5095484;28;20543;-56
2022/02/26 06:07:18;;;;;;;19.75;3.97;;;2.50;99.90;;;;;;5095164;28;20208;-56
2022/02/26 06:09:46;;;;;;;21.02;4.32;;;2.40;99.90;;;;;;5095129;28;20224;-56
2022/02/26 06:12:13;;;;;;;21.77;3.80;;;2.40;99.90;;;;;;5095187;28;20359;-56
2022/02/26 06:14:41;;;;;;;20.73;3.75;;;2.30;99.90;;;;;;5095130;28;20200;-57
2022/02/26 06:17:08;;;;;;;13.77;3.63;;;2.30;99.90;;;;;;5095168;28;20287;-56
2022/02/26 06:19:35;;;;;;;18.73;3.70;;;2.30;99.90;;;;;;5094440;28;20704;-57
2022/02/26 06:22:02;;;;;;;12.77;3.85;;;2.30;99.90;;;;;;5094979;28;20223;-56
2022/02/26 06:24:30;;;;;;;10.95;3.78;;;2.30;99.90;;;;;;5094828;28;20243;-57
2022/02/26 06:26:58;;;;;;;14.80;3.85;;;2.30;99.90;;;;;;5094543;28;20672;-57
2022/02/26 06:29:25;;;;;;;16.13;4.25;;;2.30;99.90;;;;;;5094376;28;20901;-56
2022/02/26 06:31:53;;;;;;;14.75;3.70;;;2.30;99.90;;;;;;5093451;28;20706;-56
2022/02/26 06:34:21;;;;;;;13.25;3.88;;;2.30;99.90;;;;;;5094389;28;20566;-57
2022/02/26 06:36:48;;;;;;;12.43;4.30;;;2.30;99.90;;;;;;5094435;28;20196;-57
2022/02/26 06:39:15;;;;;;;12.23;3.30;;;2.30;99.90;;;;;;5094549;28;20218;-58
2022/02/26 06:41:43;;;;;;;15.43;3.65;;;2.30;99.90;;;;;;5094342;28;20295;-56
2022/02/26 06:44:11;;;;;;;10.07;3.90;;;2.30;99.90;;;;;;5094511;28;20287;-56
2022/02/26 06:46:39;;;;;;;22.08;4.35;;;2.30;99.90;;;;;;5094463;28;20648;-57
2022/02/26 06:49:07;;;;;;;19.50;5.78;;;2.30;99.90;;;;;;5094251;28;20217;-58
2022/02/26 06:51:34;;;;;;;9.88;4.75;;;2.40;99.90;;;;;;5094288;28;20200;-56
2022/02/26 06:54:01;;;;;;;14.88;4.07;;;2.40;99.90;;;;;;5093911;28;20300;-57
2022/02/26 06:56:29;;;;;;;20.63;4.32;;;2.40;99.90;;;;;;5094144;28;20215;-56
2022/02/26 06:58:56;;;;;;;18.08;4.65;;;2.40;99.90;;;;;;5093847;28;20687;-55
2022/02/26 07:01:25;;;;;;;16.23;4.13;;;2.50;99.90;;;;;;5093759;28;20314;-57
2022/02/26 07:03:53;;;;;;;14.82;4.03;;;2.50;99.90;;;;;;5094137;28;20570;-56
2022/02/26 07:06:20;;;;;;;18.52;4.70;;;2.60;99.90;;;;;;5093904;28;20211;-57
2022/02/26 07:08:47;;;;;;;21.17;4.53;;;2.60;99.90;;;;;;5093876;28;20708;-57
2022/02/26 07:11:14;;;;;;;15.18;4.63;;;2.70;99.90;;;;;;5094254;28;20315;-56
2022/02/26 07:13:42;;;;;;;17.95;4.00;;;2.70;99.90;;;;;;5094610;28;20207;-56
2022/02/26 07:16:09;;;;;;;15.32;3.15;;;2.80;99.90;;;;;;5094712;28;20200;-59
2022/02/26 07:18:37;;;;;;;17.83;4.82;;;2.80;99.90;;;;;;5094253;28;20193;-57
2022/02/26 07:21:04;;;;;;;13.05;3.67;;;2.80;99.90;;;;;;5094360;28;20263;-59
2022/02/26 07:23:32;;;;;;;14.60;3.97;;;2.90;99.90;;;;;;5093785;28;20197;-56
2022/02/26 07:26:00;;;;;;;18.30;4.90;;;2.90;99.90;;;;;;5093571;28;20695;-57
2022/02/26 07:28:27;;;;;;;17.88;4.00;;;3.00;99.90;;;;;;5093709;28;20220;-55
2022/02/26 07:30:54;;;;;;;31.88;4.65;;;3.10;99.90;;;;;;5093724;28;20232;-56
2022/02/26 07:33:21;;;;;;;18.02;3.95;;;3.20;99.90;;;;;;5093755;28;20279;-58
2022/02/26 07:35:49;;;;;;;19.73;3.95;;;3.20;99.90;;;;;;5093652;28;20292;-58
2022/02/26 07:38:16;;;;;;;14.52;3.60;;;3.20;99.90;;;;;;5093642;28;20204;-57
2022/02/26 07:40:44;;;;;;;14.07;3.58;;;3.30;99.90;;;;;;5093355;28;20243;-56
2022/02/26 07:43:13;;;;;;;18.90;3.65;;;3.30;99.90;;;;;;5093197;28;20199;-57
2022/02/26 07:45:41;;;;;;;23.20;6.30;;;3.40;99.90;;;;;;5092940;28;20205;-57
2022/02/26 07:48:08;;;;;;;25.08;4.00;;;3.50;99.90;;;;;;5092972;28;20204;-56
2022/02/26 07:50:35;;;;;;;17.80;4.30;;;3.60;99.90;;;;;;5093345;28;20226;-57
2022/02/26 07:53:04;;;;;;;27.38;4.70;;;3.70;99.90;;;;;;5093322;28;20196;-57
2022/02/26 07:55:34;;;;;;;17.40;4.15;;;3.70;99.90;;;;;;5093575;28;20205;-56
2022/02/26 07:58:01;;;;;;;15.68;4.03;;;3.80;99.90;;;;;;5092964;28;20184;-56
2022/02/26 08:00:28;;;;;;;15.18;3.28;;;3.80;99.90;;;;;;5093323;28;20220;-56
2022/02/26 08:02:56;;;;;;;16.55;4.05;;;3.90;99.90;;;;;;5093264;28;20203;-59
2022/02/26 08:05:23;;;;;;;20.30;3.47;;;3.90;99.90;;;;;;5092938;28;20196;-58
2022/02/26 08:07:50;;;;;;;16.95;4.35;;;4.10;99.90;;;;;;5093142;28;20231;-59
2022/02/26 08:10:20;;;;;;;21.98;4.55;;;4.20;99.90;;;;;;5092777;28;20633;-57
2022/02/26 08:12:47;;;;;;;17.35;6.15;;;4.20;99.90;;;;;;5092782;28;20553;-57
2022/02/26 08:15:16;;;;;;;17.13;4.50;;;4.30;99.90;;;;;;5093017;28;20547;-57
2022/02/26 08:17:44;;;;;;;17.50;4.22;;;4.30;99.90;;;;;;5093651;28;20234;-58
2022/02/26 08:20:16;;;;;;;17.05;4.97;;;4.30;99.90;;;;;;5093581;28;20224;-58
2022/02/26 08:22:45;;;;;;;8.57;3.28;;;4.40;99.90;;;;;;5093686;28;20206;-58
2022/02/26 08:25:13;;;;;;;26.92;4.40;;;4.50;99.90;;;;;;5092638;28;20204;-58
2022/02/26 08:27:42;;;;;;;14.85;4.40;;;4.50;99.90;;;;;;5092826;28;20200;-58
2022/02/26 08:30:11;;;;;;;11.15;4.20;;;4.60;99.90;;;;;;5092857;28;20239;-58
2022/02/26 08:32:38;;;;;;;22.92;4.82;;;4.70;99.90;;;;;;5092741;28;20208;-57
2022/02/26 08:35:08;;;;;;;15.13;4.65;;;4.70;99.90;;;;;;5092660;28;20668;-58
2022/02/26 08:37:35;;;;;;;15.63;4.93;;;4.70;99.90;;;;;;5093013;28;20196;-59
2022/02/26 08:40:02;;;;;;;13.02;5.10;;;4.90;99.90;;;;;;5092674;28;20252;-59
2022/02/26 08:42:29;;;;;;;22.08;4.95;;;5.00;99.90;;;;;;5092928;28;20204;-59
2022/02/26 08:45:02;;;;;;;18.42;4.55;;;5.00;99.90;;;;;;5093270;28;20201;-58
2022/02/26 08:47:30;;;;;;;15.50;5.05;;;5.10;99.90;;;;;;5093046;28;20185;-59
2022/02/26 08:49:57;;;;;;;17.88;4.20;;;5.20;99.90;;;;;;5092519;28;20666;-59
2022/02/26 08:52:25;;;;;;;23.05;4.68;;;5.20;99.90;;;;;;5092829;28;20205;-59
2022/02/26 08:54:52;;;;;;;13.00;4.35;;;5.20;99.90;;;;;;5094493;28;20200;-58
2022/02/26 08:57:20;;;;;;;17.63;5.07;;;5.20;99.90;;;;;;5097219;28;20627;-58
2022/02/26 08:59:47;;;;;;;16.17;5.03;;;5.20;99.90;;;;;;5096403;28;20217;-58
2022/02/26 09:02:15;;;;;;;13.65;4.75;;;5.30;99.90;;;;;;5097085;28;20204;-58
2022/02/26 09:04:42;;;;;;;24.77;5.60;;;5.30;99.90;;;;;;5096693;28;20196;-59
2022/02/26 09:07:09;;;;;;;16.67;6.20;;;5.40;99.90;;;;;;5096259;28;20611;-58
2022/02/26 09:09:38;;;;;;;25.63;5.65;;;5.30;99.90;;;;;;5096239;28;20228;-58
2022/02/26 09:12:06;;;;;;;17.10;4.65;;;5.40;99.90;;;;;;5096328;28;20212;-58
2022/02/26 09:14:33;;;;;;;18.15;6.57;;;5.50;99.90;;;;;;5096324;28;20208;-58
2022/02/26 09:17:00;;;;;;;16.30;5.05;;;5.50;99.90;;;;;;5096199;28;20629;-59
2022/02/26 09:19:28;;;;;;;14.27;5.20;;;5.50;99.90;;;;;;5095856;28;20559;-59
2022/02/26 09:21:56;;;;;;;20.95;5.00;;;5.50;99.90;;;;;;5095492;28;20184;-59
2022/02/26 09:24:23;;;;;;;17.70;5.10;;;5.50;99.90;;;;;;5096008;28;20226;-58
2022/02/26 09:26:50;;;;;;;14.93;5.22;;;5.60;99.90;;;;;;5095461;28;20201;-59
2022/02/26 09:29:17;;;;;;;19.50;5.50;;;5.70;99.90;;;;;;5095258;28;20232;-59
2022/02/26 09:31:50;;;;;;;17.75;5.75;;;5.80;99.90;;;;;;5095672;28;20200;-60
2022/02/26 09:34:17;;;;;;;15.23;5.20;;;5.80;99.90;;;;;;5095918;28;20203;-59
2022/02/26 09:36:46;;;;;;;11.57;5.13;;;5.70;99.90;;;;;;5095611;28;20207;-59
2022/02/26 09:39:14;;;;;;;16.35;5.20;;;5.80;99.90;;;;;;5095390;28;20196;-60
2022/02/26 09:41:46;;;;;;;14.38;5.40;;;5.90;99.90;;;;;;5095385;28;20208;-59
2022/02/26 09:44:13;;;;;;;14.43;5.13;;;5.90;99.90;;;;;;5095500;28;20188;-59
2022/02/26 09:46:41;;;;;;;19.23;5.47;;;6.00;99.90;;;;;;5095034;28;20200;-59
2022/02/26 09:49:08;;;;;;;13.88;5.57;;;6.00;99.90;;;;;;5094816;28;20217;-60
2022/02/26 09:51:35;;;;;;;14.77;5.70;;;5.90;99.90;;;;;;5094930;28;20570;-57
2022/02/26 09:54:04;;;;;;;14.45;4.90;;;5.90;99.90;;;;;;5095263;28;20275;-58
2022/02/26 09:56:31;;;;;;;12.85;5.10;;;5.90;99.90;;;;;;5094797;28;20242;-58
2022/02/26 09:58:58;;;;;;;16.00;5.07;;;6.10;99.90;;;;;;5094713;28;20200;-59
2022/02/26 10:01:25;;;;;;;11.75;4.60;;;6.20;99.90;;;;;;5095040;28;20231;-58
2022/02/26 10:04:07;;;;;;;15.07;5.43;;;6.10;99.90;;;;;;5095068;28;20196;-58
2022/02/26 10:06:34;;;;;;;17.85;5.28;;;6.00;99.90;;;;;;5095378;28;20185;-58
2022/02/26 10:09:02;;;;;;;19.38;6.00;;;6.10;99.90;;;;;;5094938;28;20615;-58
2022/02/26 10:11:33;;;;;;;18.65;5.38;;;6.20;99.90;;;;;;5094792;28;20222;-58
2022/02/26 10:14:02;;;;;;;15.45;5.05;;;6.20;99.90;;;;;;5094851;28;20184;-58
2022/02/26 10:16:50;;;;;;;16.25;4.90;;;6.30;99.90;;;;;;5094803;28;20204;-58
2022/02/26 10:19:22;;;;;;;20.50;6.45;;;6.40;99.90;;;;;;5094259;28;20200;-58
2022/02/26 10:21:49;;;;;;;19.63;5.00;;;6.30;99.90;;;;;;5120257;22;20220;-62
2022/02/26 10:24:17;;;;;;;14.10;4.75;;;6.30;99.90;;;;;;5105384;28;20205;-63
2022/02/26 10:26:50;;;;;;;14.43;4.53;;;6.40;99.90;;;;;;5105940;28;20205;-63
2022/02/26 10:29:19;;;;;;;17.17;4.75;;;6.60;99.90;;;;;;5105616;28;20226;-63
2022/02/26 10:31:49;;;;;;;14.32;4.18;;;6.60;99.90;;;;;;5105625;28;20257;-63
2022/02/26 10:34:31;;;;;;;11.95;3.95;;;6.60;99.90;;;;;;5106649;28;20219;-63
2022/02/26 10:37:00;;;;;;;21.00;5.30;;;6.60;99.90;;;;;;5108519;28;20185;-64
2022/02/26 10:39:28;;;;;;;16.60;4.15;;;6.40;99.90;;;;;;5108013;28;20212;-63
2022/02/26 10:41:57;;;;;;;14.65;4.60;;;6.50;99.90;;;;;;5105136;28;20224;-61
2022/02/26 10:44:24;;;;;;;15.85;4.40;;;6.60;99.90;;;;;;5105346;28;20204;-62
2022/02/26 10:46:52;;;;;;;12.50;4.57;;;6.70;99.90;;;;;;5105096;28;20208;-63
2022/02/26 10:49:20;;;;;;;13.23;3.85;;;6.80;99.90;;;;;;5109389;28;20224;-63
2022/02/26 10:51:50;;;;;;;17.20;5.28;;;6.90;99.90;;;;;;5104969;28;20227;-63
2022/02/26 10:54:23;;;;;;;15.05;4.25;;;7.00;99.90;;;;;;5099672;28;20207;-62
2022/02/26 10:56:51;;;;;;;14.05;4.80;;;7.10;99.90;;;;;;5098435;28;20223;-63
2022/02/26 10:59:30;;;;;;;9.15;3.80;;;7.20;99.90;;;;;;5094964;28;20204;-62
2022/02/26 11:02:04;;;;;;;13.65;4.15;;;7.40;99.60;;;;;;5094797;28;20250;-62
2022/02/26 11:04:31;;;;;;;22.98;4.32;;;7.40;99.40;;;;;;5095094;28;20204;-63
2022/02/26 11:06:59;;;;;;;12.15;4.15;;;7.40;98.80;;;;;;5094723;28;20228;-63
2022/02/26 11:09:27;;;;;;;13.25;3.75;;;7.40;98.80;;;;;;5095901;28;20269;-62
2022/02/26 11:11:57;;;;;;;12.52;3.50;;;7.40;98.50;;;;;;5098056;28;20220;-63
2022/02/26 11:14:26;;;;;;;10.75;3.35;;;7.40;97.80;;;;;;5100212;28;20189;-63
2022/02/26 11:17:01;;;;;;;9.82;3.47;;;7.40;97.80;;;;;;5095986;28;20196;-63
2022/02/26 11:19:30;;;;;;;12.23;4.30;;;7.40;98.10;;;;;;5097264;28;20190;-63
2022/02/26 11:21:59;;;;;;;11.25;3.75;;;7.50;97.80;;;;;;5096959;28;20228;-63
2022/02/26 11:24:26;;;;;;;12.15;4.03;;;7.60;96.90;;;;;;5095632;28;20208;-63
2022/02/26 11:26:53;;;;;;;10.88;3.65;;;7.60;96.10;;;;;;5094594;28;20675;-62
2022/02/26 11:29:23;;;;;;;12.13;3.50;;;7.60;95.90;;;;;;5094271;28;20200;-63
2022/02/26 11:31:59;;;;;;;12.13;3.63;;;7.60;95.70;;;;;;5095383;28;20628;-63
2022/02/26 11:34:27;;;;;;;16.58;5.38;;;7.60;95.70;;;;;;5094211;28;20264;-62
2022/02/26 11:36:57;;;;;;;15.82;3.83;;;7.80;95.70;;;;;;5095201;28;20235;-62
2022/02/26 11:39:27;;;;;;;16.10;3.95;;;7.90;95.00;;;;;;5094627;28;20208;-62
2022/02/26 11:42:27;;;;;;;14.95;4.50;;;8.00;94.70;;;;;;5094887;28;20228;-63
2022/02/26 11:44:57;;;;;;;10.75;3.53;;;8.10;94.60;;;;;;5095258;28;20551;-63
2022/02/26 11:47:43;;;;;;;17.67;4.35;;;8.20;94.30;;;;;;5095516;28;20667;-63
2022/02/26 11:50:12;;;;;;;15.93;5.00;;;8.30;94.30;;;;;;5095803;28;20251;-63
2022/02/26 11:52:54;;;;;;;14.30;3.88;;;8.50;93.80;;;;;;5094772;28;20204;-62
2022/02/26 11:55:26;;;;;;;10.13;3.72;;;8.50;93.30;;;;;;5097003;28;20192;-62
2022/02/26 11:57:55;;;;;;;13.55;3.90;;;8.50;93.00;;;;;;5094107;28;20200;-63
2022/02/26 12:00:23;;;;;;;15.15;3.63;;;8.50;92.70;;;;;;5093693;28;20227;-62
2022/02/26 12:03:32;;;;;;;10.50;3.72;;;8.40;92.50;;;;;;5094358;28;20317;-62
2022/02/26 12:06:35;;;;;;;12.88;3.80;;;8.50;92.60;;;;;;5046145;28;20197;-62
2022/02/26 12:09:10;;;;;;;13.80;4.18;;;8.60;92.30;;;;;;5094614;28;20199;-64
2022/02/26 12:11:40;;;;;;;11.15;3.95;;;8.70;92.20;;;;;;5094051;28;20227;-62
2022/02/26 12:14:08;;;;;;;8.38;4.57;;;8.80;92.10;;;;;;5095862;28;20208;-63
2022/02/26 12:16:36;;;;;;;18.58;4.50;;;8.90;91.50;;;;;;5100080;28;20570;-64
2022/02/26 12:19:07;;;;;;;15.45;4.45;;;8.90;90.70;;;;;;5097704;28;20196;-63
2022/02/26 12:21:37;;;;;;;17.17;4.13;;;8.90;90.90;;;;;;5096305;28;20224;-64
2022/02/26 12:24:12;;;;;;;7.90;3.65;;;9.00;90.50;;;;;;5096185;28;20691;-63
2022/02/26 12:26:48;;;;;;;12.10;4.07;;;9.00;90.20;;;;;;5096202;28;20199;-64
2022/02/26 12:29:30;;;;;;;17.48;4.15;;;9.10;90.00;;;;;;5095619;28;20203;-63
2022/02/26 12:31:59;;;;;;;8.17;3.17;;;9.10;89.50;;;;;;5097908;28;20219;-63
2022/02/26 12:34:30;;;;;;;10.57;4.40;;;9.10;89.40;;;;;;5097639;28;20450;-63
2022/02/26 12:37:18;;;;;;;13.00;5.00;;;9.20;89.20;;;;;;5098879;28;20243;-63
2022/02/26 12:39:49;;;;;;;13.55;3.95;;;9.30;88.10;;;;;;5097823;28;20422;-62
2022/02/26 12:42:22;;;;;;;11.63;4.40;;;9.30;86.80;;;;;;5097952;28;20697;-62
2022/02/26 12:44:50;;;;;;;11.30;3.65;;;9.20;87.00;;;;;;5098977;28;20446;-62
2022/02/26 12:47:17;;;;;;;9.18;3.35;;;9.10;85.70;;;;;;5098875;28;20211;-62
2022/02/26 12:49:45;;;;;;;12.60;5.13;;;9.00;86.00;;;;;;5106816;28;20200;-64
2022/02/26 12:52:14;;;;;;;10.27;3.10;;;9.00;86.70;;;;;;5106397;28;20200;-64
2022/02/26 12:54:42;;;;;;;16.20;4.40;;;9.10;85.70;;;;;;5097904;28;20207;-63
2022/02/26 12:57:11;;;;;;;13.30;3.45;;;9.20;83.90;;;;;;5097385;28;20240;-63